Time;durP1;ratioP1;P1;durP2;ratioP2;P2;SDS_P1;SDS_P2;PMS_P1;PMS_P2;Temp;Humidity;BMP_temperature;BMP_pressure;BME280_temperature;BME280_humidity;BME280_pressure;Samples;Min_cycle;Max_cycle;Signal;HPM_P1;HPM_P2
2022/01/03 00:00:12;;;;;;;1.95;0.60;;;;;;;;;;6195571;28;20125;-86
2022/01/03 00:03:15;;;;;;;3.05;0.60;;;;;;;;;;6251155;28;20119;-85
2022/01/03 00:06:19;;;;;;;3.20;0.60;;;;;;;;;;6221761;28;20061;-83
2022/01/03 00:09:21;;;;;;;2.40;0.70;;;;;;;;;;6208766;28;20054;-82
2022/01/03 00:12:23;;;;;;;6.00;0.60;;;;;;;;;;6238546;28;20037;-83
2022/01/03 00:15:25;;;;;;;3.47;0.60;;;;;;;;;;6240360;28;20130;-83
2022/01/03 00:18:26;;;;;;;3.10;0.73;;;;;;;;;;6212324;28;20066;-86
2022/01/03 00:21:37;;;;;;;4.32;0.60;;;;;;;;;;6230219;28;20049;-86
2022/01/03 00:24:43;;;;;;;1.88;0.70;;;;;;;;;;6175985;28;20565;-85
2022/01/03 00:27:48;;;;;;;3.78;0.90;;;;;;;;;;6169440;28;20125;-86
2022/01/03 00:30:55;;;;;;;3.38;1.02;;;;;;;;;;6191318;28;20193;-83
2022/01/03 00:33:57;;;;;;;5.32;0.80;;;;;;;;;;6214003;28;20045;-85
2022/01/03 00:36:59;;;;;;;2.17;0.70;;;;;;;;;;6197170;28;20125;-84
2022/01/03 00:40:03;;;;;;;4.07;0.93;;;;;;;;;;6196828;28;20046;-86
2022/01/03 00:43:06;;;;;;;5.20;0.95;;;;;;;;;;6251440;28;20129;-83
2022/01/03 00:46:08;;;;;;;;;;;;;;;;;;6213782;28;20113;-83
2022/01/03 00:49:10;;;;;;;6.43;1.15;;;;;;;;;;6232608;28;19944;-85
2022/01/03 00:52:12;;;;;;;5.25;0.90;;;;;;;;;;6222521;28;20053;-83
2022/01/03 00:55:14;;;;;;;4.57;0.85;;;;;;;;;;6215308;28;20169;-84
2022/01/03 00:58:19;;;;;;;2.65;0.95;;;;;;;;;;6221339;28;20058;-84
2022/01/03 01:01:25;;;;;;;4.05;1.05;;;;;;;;;;6196986;28;20050;-85
2022/01/03 01:04:27;;;;;;;6.63;1.05;;;;;;;;;;6188807;28;20053;-86
2022/01/03 01:07:32;;;;;;;2.30;0.82;;;;;;;;;;6173899;28;20046;-83
2022/01/03 01:10:36;;;;;;;5.60;1.00;;;;;;;;;;6243050;28;20125;-83
2022/01/03 01:13:41;;;;;;;5.28;0.90;;;;;;;;;;6196594;28;20046;-84
2022/01/03 01:16:45;;;;;;;2.70;0.73;;;;;;;;;;6230786;28;20070;-83
2022/01/03 01:19:48;;;;;;;4.30;0.98;;;;;;;;;;6233729;28;20046;-84
2022/01/03 01:22:51;;;;;;;3.25;0.90;;;;;;;;;;6212835;28;20050;-84
2022/01/03 01:29:16;;;;;;;7.10;1.10;;;;;;;;;;6199503;28;20408;-83
2022/01/03 01:32:18;;;;;;;8.32;1.02;;;;;;;;;;6194782;28;20050;-85
2022/01/03 01:35:23;;;;;;;5.55;1.10;;;;;;;;;;6212431;28;20046;-83
2022/01/03 01:38:30;;;;;;;7.32;1.20;;;;;;;;;;6212084;28;20388;-85
2022/01/03 01:41:38;;;;;;;4.63;0.80;;;;;;;;;;6228201;28;20046;-83
2022/01/03 01:44:47;;;;;;;6.47;1.13;;;;;;;;;;6195799;28;20077;-83
2022/01/03 01:47:57;;;;;;;6.15;1.05;;;;;;;;;;6190826;28;20046;-84
2022/01/03 01:50:59;;;;;;;5.68;1.02;;;;;;;;;;6197310;28;20065;-84
2022/01/03 01:54:04;;;;;;;5.28;0.88;;;;;;;;;;6193969;28;20038;-84
2022/01/03 01:57:19;;;;;;;5.85;1.63;;;;;;;;;;6199120;28;20053;-85
2022/01/03 02:00:29;;;;;;;7.57;1.38;;;;;;;;;;6195634;28;20189;-83
2022/01/03 02:04:06;;;;;;;13.02;1.63;;;;;;;;;;6205018;28;20129;-83
2022/01/03 02:07:25;;;;;;;5.30;1.50;;;;;;;;;;6210656;28;20042;-84
2022/01/03 02:10:35;;;;;;;7.85;1.10;;;;;;;;;;6194002;28;20053;-84
2022/01/03 02:13:39;;;;;;;3.50;0.82;;;;;;;;;;6226576;28;20184;-87
2022/01/03 02:16:42;;;;;;;7.85;0.90;;;;;;;;;;6180202;28;20046;-83
2022/01/03 02:20:06;;;;;;;7.43;0.90;;;;;;;;;;6210963;28;20050;-83
2022/01/03 02:23:08;;;;;;;4.70;0.95;;;;;;;;;;6211832;28;20042;-85
2022/01/03 02:26:14;;;;;;;9.10;2.85;;;;;;;;;;6211051;28;20053;-83
2022/01/03 02:29:15;;;;;;;6.30;0.90;;;;;;;;;;6229570;28;20050;-84
2022/01/03 02:32:17;;;;;;;5.25;1.70;;;;;;;;;;6189533;28;20050;-83
2022/01/03 02:35:20;;;;;;;5.53;0.82;;;;;;;;;;6213854;28;20053;-84
2022/01/03 02:38:22;;;;;;;5.35;1.08;;;;;;;;;;6200749;28;20509;-84
2022/01/03 02:41:24;;;;;;;5.97;1.25;;;;;;;;;;6191883;28;20046;-83
2022/01/03 02:44:29;;;;;;;5.50;1.33;;;;;;;;;;6217799;28;20096;-84
2022/01/03 02:47:32;;;;;;;3.20;1.23;;;;;;;;;;6198081;28;20072;-86
2022/01/03 02:50:35;;;;;;;5.30;0.85;;;;;;;;;;6233144;28;20053;-85
2022/01/03 02:53:38;;;;;;;5.43;1.35;;;;;;;;;;6199687;28;20042;-85
2022/01/03 02:56:42;;;;;;;4.80;1.05;;;;;;;;;;6170222;28;20042;-83
2022/01/03 02:59:44;;;;;;;3.88;0.95;;;;;;;;;;6216952;28;20614;-84
2022/01/03 03:02:46;;;;;;;4.38;0.75;;;;;;;;;;6204601;28;20043;-84
2022/01/03 03:05:50;;;;;;;2.10;0.63;;;;;;;;;;6228357;28;20050;-84
2022/01/03 03:08:53;;;;;;;7.50;1.20;;;;;;;;;;6230700;28;20046;-84
2022/01/03 03:11:55;;;;;;;5.07;0.80;;;;;;;;;;6216308;28;20046;-85
2022/01/03 03:14:57;;;;;;;8.55;0.93;;;;;;;;;;6197414;28;20043;-82
2022/01/03 03:17:59;;;;;;;8.13;1.08;;;;;;;;;;6220259;28;20038;-82
2022/01/03 03:21:00;;;;;;;3.97;0.70;;;;;;;;;;6215777;28;20074;-84
2022/01/03 03:24:03;;;;;;;3.80;0.80;;;;;;;;;;6200075;28;20039;-83
2022/01/03 03:27:08;;;;;;;1.88;0.60;;;;;;;;;;6183032;28;20449;-84
2022/01/03 03:30:16;;;;;;;4.10;0.90;;;;;;;;;;6198917;28;20102;-84
2022/01/03 03:33:22;;;;;;;4.72;0.90;;;;;;;;;;6199254;28;20047;-85
2022/01/03 03:36:31;;;;;;;3.50;0.80;;;;;;;;;;6200152;28;20046;-84
2022/01/03 03:39:33;;;;;;;4.85;0.80;;;;;;;;;;6214743;28;20039;-84
2022/01/03 03:42:37;;;;;;;;;;;;;;;;;;6208392;28;20066;-86
2022/01/03 03:45:39;;;;;;;8.82;1.08;;;;;;;;;;6224297;28;19980;-85
2022/01/03 03:48:41;;;;;;;7.47;1.40;;;;;;;;;;6207178;28;20053;-85
2022/01/03 03:51:46;;;;;;;3.60;0.73;;;;;;;;;;6229274;28;20089;-84
2022/01/03 03:54:48;;;;;;;2.50;0.80;;;;;;;;;;6197635;28;20054;-83
2022/01/03 03:57:50;;;;;;;3.80;1.13;;;;;;;;;;6199256;28;20057;-83
2022/01/03 04:00:52;;;;;;;5.63;1.20;;;;;;;;;;6232348;28;20042;-85
2022/01/03 04:04:11;;;;;;;4.18;0.50;;;;;;;;;;6215004;28;20046;-83
2022/01/03 04:07:13;;;;;;;5.10;0.68;;;;;;;;;;6255730;28;20057;-82
2022/01/03 04:10:16;;;;;;;3.60;0.95;;;;;;;;;;6228481;28;20065;-83
2022/01/03 04:13:20;;;;;;;4.93;1.05;;;;;;;;;;6215127;28;20057;-84
2022/01/03 04:16:22;;;;;;;3.67;0.67;;;;;;;;;;6198985;28;20064;-89
2022/01/03 04:19:24;;;;;;;7.05;1.17;;;;;;;;;;6227377;28;20441;-84
2022/01/03 04:22:26;;;;;;;2.38;0.63;;;;;;;;;;6230282;28;20054;-86
2022/01/03 04:25:27;;;;;;;5.90;0.70;;;;;;;;;;6203361;28;20078;-87
2022/01/03 04:28:29;;;;;;;5.10;0.90;;;;;;;;;;6169616;28;20062;-85
2022/01/03 04:31:32;;;;;;;5.35;0.88;;;;;;;;;;6230863;28;20053;-86
2022/01/03 04:34:34;;;;;;;4.43;0.68;;;;;;;;;;6181740;28;20057;-84
2022/01/03 04:37:36;;;;;;;3.80;0.70;;;;;;;;;;6214545;28;20597;-84
2022/01/03 04:40:40;;;;;;;2.70;0.65;;;;;;;;;;6168253;28;20055;-84
2022/01/03 04:43:42;;;;;;;3.72;0.60;;;;;;;;;;6216707;28;20038;-85
2022/01/03 04:46:44;;;;;;;6.28;1.10;;;;;;;;;;6242983;28;20050;-84
2022/01/03 04:49:46;;;;;;;5.90;1.05;;;;;;;;;;6215927;28;20057;-86
2022/01/03 04:52:48;;;;;;;5.53;0.80;;;;;;;;;;6214528;28;20062;-83
2022/01/03 04:55:52;;;;;;;6.70;0.87;;;;;;;;;;6208403;28;20046;-86
2022/01/03 04:58:55;;;;;;;1.02;0.55;;;;;;;;;;6223619;28;20476;-87
2022/01/03 05:01:56;;;;;;;;;;;;;;;;;;6234527;28;20042;-83
2022/01/03 05:04:59;;;;;;;3.50;0.63;;;;;;;;;;6234030;28;19968;-84
2022/01/03 05:08:01;;;;;;;3.55;0.70;;;;;;;;;;6236912;28;20037;-84
2022/01/03 05:11:03;;;;;;;4.72;0.80;;;;;;;;;;6204945;28;20045;-83
2022/01/03 05:14:05;;;;;;;5.53;1.23;;;;;;;;;;6228903;28;20046;-83
2022/01/03 05:17:07;;;;;;;4.50;0.63;;;;;;;;;;6193284;28;20043;-84
2022/01/03 05:20:09;;;;;;;3.85;0.80;;;;;;;;;;6189646;28;20531;-83
2022/01/03 05:23:12;;;;;;;6.93;1.05;;;;;;;;;;6172944;28;20054;-84
2022/01/03 05:26:14;;;;;;;4.65;0.88;;;;;;;;;;6206239;28;20054;-83
2022/01/03 05:29:16;;;;;;;3.83;0.80;;;;;;;;;;6187057;28;20676;-83
2022/01/03 05:32:22;;;;;;;7.40;0.88;;;;;;;;;;6222697;28;20078;-83
2022/01/03 05:35:24;;;;;;;4.60;0.70;;;;;;;;;;6220338;28;20042;-85
2022/01/03 05:38:26;;;;;;;4.25;0.70;;;;;;;;;;6245173;28;20106;-84
2022/01/03 05:41:29;;;;;;;6.03;1.15;;;;;;;;;;6212964;28;20038;-84
2022/01/03 05:44:31;;;;;;;3.17;0.68;;;;;;;;;;6196829;28;20038;-83
2022/01/03 05:47:34;;;;;;;2.22;0.80;;;;;;;;;;6222154;28;20100;-85
2022/01/03 05:50:37;;;;;;;4.07;0.80;;;;;;;;;;6237985;28;20046;-85
2022/01/03 05:53:38;;;;;;;4.10;0.60;;;;;;;;;;6249846;28;20449;-84
2022/01/03 05:56:40;;;;;;;4.57;0.88;;;;;;;;;;6212828;28;20046;-83
2022/01/03 05:59:42;;;;;;;5.30;0.70;;;;;;;;;;6253413;28;20118;-84
2022/01/03 06:02:44;;;;;;;7.82;1.27;;;;;;;;;;6204658;28;20102;-85
2022/01/03 06:09:00;;;;;;;3.65;0.85;;;;;;;;;;6161659;28;20129;-83
2022/01/03 06:12:04;;;;;;;5.40;0.70;;;;;;;;;;6237060;28;20132;-83
2022/01/03 06:15:09;;;;;;;3.70;0.88;;;;;;;;;;6215468;28;20043;-83
2022/01/03 06:18:15;;;;;;;4.82;0.88;;;;;;;;;;6226918;28;20070;-85
2022/01/03 06:21:20;;;;;;;4.28;0.60;;;;;;;;;;6225478;28;20057;-84
2022/01/03 06:24:23;;;;;;;3.97;0.68;;;;;;;;;;6256460;28;20054;-83
2022/01/03 06:27:26;;;;;;;4.22;0.80;;;;;;;;;;6256826;28;20060;-86
2022/01/03 06:30:28;;;;;;;6.78;0.90;;;;;;;;;;6218779;28;20069;-84
2022/01/03 06:33:29;;;;;;;2.50;0.80;;;;;;;;;;6215293;28;20046;-84
2022/01/03 06:36:32;;;;;;;5.72;1.00;;;;;;;;;;6231929;28;20046;-83
2022/01/03 06:39:37;;;;;;;4.15;1.15;;;;;;;;;;6187039;28;20055;-83
2022/01/03 06:42:41;;;;;;;2.78;0.90;;;;;;;;;;6205313;28;20042;-85
2022/01/03 06:45:43;;;;;;;4.15;0.80;;;;;;;;;;6228394;28;20472;-83
2022/01/03 06:48:46;;;;;;;6.10;0.73;;;;;;;;;;6202950;28;20073;-84
2022/01/03 06:51:47;;;;;;;8.80;0.97;;;;;;;;;;6182727;28;20238;-83
2022/01/03 06:54:50;;;;;;;5.47;0.80;;;;;;;;;;6217790;28;20445;-84
2022/01/03 06:57:52;;;;;;;7.33;0.97;;;;;;;;;;6242504;28;20046;-86
2022/01/03 07:00:55;;;;;;;9.25;1.02;;;;;;;;;;6229420;28;20046;-85
2022/01/03 07:03:57;;;;;;;4.65;0.70;;;;;;;;;;6200021;28;20046;-85
2022/01/03 07:06:58;;;;;;;5.13;0.90;;;;;;;;;;6200150;28;20049;-84
2022/01/03 07:10:00;;;;;;;3.95;0.75;;;;;;;;;;6230016;28;20129;-86
2022/01/03 07:13:02;;;;;;;5.20;1.05;;;;;;;;;;6230863;28;20052;-85
2022/01/03 07:19:24;;;;;;;5.50;1.10;;;;;;;;;;6199586;28;20050;-84
2022/01/03 07:22:27;;;;;;;6.72;1.30;;;;;;;;;;6198118;28;20066;-84
2022/01/03 07:25:28;;;;;;;6.07;1.48;;;;;;;;;;6198181;28;20046;-85
2022/01/03 07:28:30;;;;;;;3.42;1.45;;;;;;;;;;6198631;28;20209;-86
2022/01/03 07:31:32;;;;;;;4.88;0.55;;;;;;;;;;6199725;28;20042;-82
2022/01/03 07:34:34;;;;;;;4.32;1.10;;;;;;;;;;6199575;28;20112;-85
2022/01/03 07:37:36;;;;;;;5.27;1.00;;;;;;;;;;6200392;28;20455;-84
2022/01/03 07:40:38;;;;;;;7.60;0.90;;;;;;;;;;6230225;28;20904;-84
2022/01/03 07:43:39;;;;;;;4.18;1.00;;;;;;;;;;6207769;28;20121;-85
2022/01/03 07:46:41;;;;;;;3.00;0.88;;;;;;;;;;6221014;28;20050;-86
2022/01/03 07:49:42;;;;;;;4.43;0.88;;;;;;;;;;6226862;28;20517;-85
2022/01/03 07:52:44;;;;;;;4.97;1.10;;;;;;;;;;6218319;28;20110;-84
2022/01/03 07:55:46;;;;;;;9.18;1.35;;;;;;;;;;6220640;28;20572;-83
2022/01/03 07:58:48;;;;;;;2.72;0.80;;;;;;;;;;6196938;28;20055;-83
2022/01/03 08:01:50;;;;;;;4.82;1.10;;;;;;;;;;6171725;28;20063;-84
2022/01/03 08:04:52;;;;;;;4.20;0.80;;;;;;;;;;6214143;28;20052;-84
2022/01/03 08:07:53;;;;;;;6.03;2.05;;;;;;;;;;6197769;28;20042;-82
2022/01/03 08:10:55;;;;;;;9.00;1.15;;;;;;;;;;6248855;28;20052;-84
2022/01/03 08:13:57;;;;;;;5.28;1.15;;;;;;;;;;6227569;28;20512;-84
2022/01/03 08:16:58;;;;;;;4.35;0.90;;;;;;;;;;6196282;28;20042;-83
2022/01/03 08:20:01;;;;;;;6.45;1.08;;;;;;;;;;6199762;28;20129;-84
2022/01/03 08:23:03;;;;;;;5.60;1.40;;;;;;;;;;6195979;28;20129;-85
2022/01/03 08:26:04;;;;;;;5.00;1.10;;;;;;;;;;6201791;28;20511;-87
2022/01/03 08:29:06;;;;;;;7.18;1.20;;;;;;;;;;6222289;28;20169;-83
2022/01/03 08:32:08;;;;;;;10.55;1.27;;;;;;;;;;6222573;28;20038;-85
2022/01/03 08:35:10;;;;;;;2.35;1.00;;;;;;;;;;6223308;28;20046;-86
2022/01/03 08:38:12;;;;;;;5.60;1.38;;;;;;;;;;6217436;28;20060;-85
2022/01/03 08:41:13;;;;;;;5.82;1.65;;;;;;;;;;6253719;28;20140;-85
2022/01/03 08:44:15;;;;;;;5.90;1.50;;;;;;;;;;6197348;28;20062;-85
2022/01/03 08:47:18;;;;;;;6.47;1.83;;;;;;;;;;6204439;28;20042;-85
2022/01/03 08:50:19;;;;;;;9.27;1.27;;;;;;;;;;6199020;28;20109;-84
2022/01/03 08:53:26;;;;;;;8.65;1.60;;;;;;;;;;6196360;28;20137;-85
2022/01/03 08:56:28;;;;;;;5.10;1.13;;;;;;;;;;6193907;28;20042;-84
2022/01/03 08:59:29;;;;;;;7.97;1.20;;;;;;;;;;6195855;28;20138;-83
2022/01/03 09:02:31;;;;;;;6.15;1.30;;;;;;;;;;6208326;28;20191;-80
2022/01/03 09:05:33;;;;;;;3.92;1.02;;;;;;;;;;6219006;28;20070;-83
2022/01/03 09:08:34;;;;;;;4.28;1.17;;;;;;;;;;6233789;28;20481;-81
2022/01/03 09:11:36;;;;;;;7.05;1.25;;;;;;;;;;6191615;28;20041;-81
2022/01/03 09:14:37;;;;;;;7.15;1.10;;;;;;;;;;6218780;28;20499;-80
2022/01/03 09:17:40;;;;;;;6.80;1.13;;;;;;;;;;6190998;28;20173;-83
2022/01/03 09:20:42;;;;;;;6.85;1.35;;;;;;;;;;6219165;28;20125;-81
2022/01/03 09:23:49;;;;;;;7.63;1.20;;;;;;;;;;6214496;28;20432;-82
2022/01/03 09:30:12;;;;;;;6.38;1.70;;;;;;;;;;6213815;28;20170;-82
2022/01/03 09:33:14;;;;;;;6.45;1.40;;;;;;;;;;6208630;28;20132;-81
2022/01/03 09:36:16;;;;;;;5.25;1.10;;;;;;;;;;6219901;28;20056;-83
2022/01/03 09:39:17;;;;;;;4.72;1.00;;;;;;;;;;6216667;28;20060;-82
2022/01/03 09:42:23;;;;;;;6.90;1.77;;;;;;;;;;6219316;28;20038;-81
2022/01/03 09:45:32;;;;;;;6.90;1.25;;;;;;;;;;6212984;28;20165;-82
2022/01/03 09:48:41;;;;;;;8.40;1.67;;;;;;;;;;6234691;28;20042;-81
2022/01/03 09:51:43;;;;;;;6.50;1.38;;;;;;;;;;6227343;28;20131;-80
2022/01/03 09:54:45;;;;;;;5.03;1.30;;;;;;;;;;6226896;28;20112;-81
2022/01/03 09:57:48;;;;;;;7.72;1.10;;;;;;;;;;6231653;28;20053;-82
2022/01/03 10:00:50;;;;;;;6.15;1.40;;;;;;;;;;6214720;28;20054;-84
2022/01/03 10:03:52;;;;;;;7.60;1.25;;;;;;;;;;6223209;28;20046;-82
2022/01/03 10:06:55;;;;;;;8.48;1.70;;;;;;;;;;6190479;28;20577;-83
2022/01/03 10:09:57;;;;;;;7.78;1.30;;;;;;;;;;6194376;28;20170;-82
2022/01/03 10:12:58;;;;;;;9.88;2.10;;;;;;;;;;6196037;28;20046;-83
2022/01/03 10:16:00;;;;;;;7.50;1.35;;;;;;;;;;6195873;28;20053;-82
2022/01/03 10:19:02;;;;;;;7.47;2.00;;;;;;;;;;6197201;28;20050;-82
2022/01/03 10:22:07;;;;;;;7.97;1.40;;;;;;;;;;6200370;28;20048;-82
2022/01/03 10:25:10;;;;;;;7.82;1.27;;;;;;;;;;6197881;28;20081;-82
2022/01/03 10:28:23;;;;;;;7.22;1.17;;;;;;;;;;6195431;28;20106;-83
2022/01/03 10:31:26;;;;;;;7.28;1.77;;;;;;;;;;6193892;28;20046;-82
2022/01/03 10:34:30;;;;;;;8.77;1.40;;;;;;;;;;6195496;28;20053;-81
2022/01/03 10:37:36;;;;;;;6.40;1.40;;;;;;;;;;6190482;28;20042;-80
2022/01/03 10:40:38;;;;;;;9.82;1.30;;;;;;;;;;6214255;28;20145;-80
2022/01/03 10:44:00;;;;;;;8.23;1.30;;;;;;;;;;6198765;28;20125;-80
2022/01/03 10:47:04;;;;;;;7.22;1.20;;;;;;;;;;6201044;28;20674;-80
2022/01/03 10:50:18;;;;;;;9.20;1.25;;;;;;;;;;6202253;28;20154;-80
2022/01/03 10:53:35;;;;;;;7.85;1.60;;;;;;;;;;6199871;28;20124;-80
2022/01/03 10:56:39;;;;;;;7.13;1.15;;;;;;;;;;6194424;28;20038;-79
2022/01/03 10:59:41;;;;;;;9.85;1.65;;;;;;;;;;6197970;28;20121;-83
2022/01/03 11:03:11;;;;;;;6.25;0.98;;;;;;;;;;6191576;28;20126;-82
2022/01/03 11:06:36;;;;;;;10.43;1.52;;;;;;;;;;6199100;28;20559;-82
2022/01/03 11:13:08;;;;;;;4.80;1.50;;;;;;;;;;6200040;28;20127;-83
2022/01/03 11:16:11;;;;;;;4.30;1.20;;;;;;;;;;6210694;28;20702;-81
2022/01/03 11:19:13;;;;;;;10.15;1.52;;;;;;;;;;6212936;28;20054;-81
2022/01/03 11:22:45;;;;;;;4.57;1.20;;;;;;;;;;6197193;28;20153;-80
2022/01/03 11:25:47;;;;;;;4.75;1.08;;;;;;;;;;6195776;28;20133;-80
2022/01/03 11:28:49;;;;;;;4.13;0.73;;;;;;;;;;6213346;28;20046;-81
2022/01/03 11:31:52;;;;;;;8.50;1.40;;;;;;;;;;6179257;28;20128;-80
2022/01/03 11:34:56;;;;;;;9.73;1.45;;;;;;;;;;6175243;28;20039;-81
2022/01/03 11:38:00;;;;;;;5.78;0.93;;;;;;;;;;6188769;28;20054;-80
2022/01/03 11:41:04;;;;;;;5.25;1.70;;;;;;;;;;6184486;28;20046;-81
2022/01/03 11:44:07;;;;;;;4.90;0.88;;;;;;;;;;6198475;28;20101;-81
2022/01/03 11:47:09;;;;;;;;;;;;;;;;;;6235729;28;20046;-81
2022/01/03 11:50:11;;;;;;;4.18;0.95;;;;;;;;;;6197984;28;20410;-81
2022/01/03 11:53:20;;;;;;;3.60;1.00;;;;;;;;;;6173215;28;20034;-81
2022/01/03 11:56:23;;;;;;;4.10;1.05;;;;;;;;;;6187186;28;20081;-81
2022/01/03 12:03:36;;;;;;;2.03;0.75;;;;;;;;;;6196461;28;20070;-85
2022/01/03 12:06:08;;;;;;;0.45;0.22;;;;;;;;;;6221930;28;20079;-83
2022/01/03 12:09:12;;;;;;;0.85;0.30;;;;;;;;;;6193120;28;20062;-83
2022/01/03 12:12:35;;;;;;;2.03;0.40;;;;;;;;;;6186528;28;20577;-83
2022/01/03 12:15:41;;;;;;;1.02;0.22;;;;;;;;;;6165462;28;20134;-82
2022/01/03 12:18:57;;;;;;;3.92;0.30;;;;;;;;;;6183953;28;20054;-80
2022/01/03 12:22:06;;;;;;;1.38;0.30;;;;;;;;;;6210693;28;20046;-82
2022/01/03 12:25:26;;;;;;;2.38;0.43;;;;;;;;;;6190011;28;20047;-82
2022/01/03 12:29:05;;;;;;;2.70;0.35;;;;;;;;;;6219339;28;20085;-83
2022/01/03 12:32:08;;;;;;;1.23;0.20;;;;;;;;;;6205596;28;20089;-83
2022/01/03 12:35:13;;;;;;;1.67;0.80;;;;;;;;;;6217779;28;20052;-84
2022/01/03 12:38:19;;;;;;;3.53;0.40;;;;;;;;;;6218682;28;20109;-82
2022/01/03 12:41:41;;;;;;;1.80;0.40;;;;;;;;;;6215559;28;20495;-82
2022/01/03 12:44:49;;;;;;;4.85;0.60;;;;;;;;;;6216881;28;20132;-82
2022/01/03 12:47:50;;;;;;;2.05;0.40;;;;;;;;;;6199745;28;20047;-83
2022/01/03 12:50:52;;;;;;;4.38;0.50;;;;;;;;;;6220011;28;20097;-84
2022/01/03 12:53:54;;;;;;;3.70;0.82;;;;;;;;;;6246057;28;20046;-82
2022/01/03 12:57:14;;;;;;;2.67;0.40;;;;;;;;;;6203593;28;20050;-82
2022/01/03 13:00:58;;;;;;;2.22;0.50;;;;;;;;;;6194561;28;20114;-82
2022/01/03 13:04:05;;;;;;;1.50;0.60;;;;;;;;;;6206985;28;20041;-83
2022/01/03 13:07:07;;;;;;;1.88;0.40;;;;;;;;;;6234617;28;20121;-82
2022/01/03 13:10:08;;;;;;;2.90;0.60;;;;;;;;;;6208307;28;20042;-82
2022/01/03 13:13:24;;;;;;;3.90;0.93;;;;;;;;;;6215943;28;20042;-83
2022/01/03 13:16:34;;;;;;;2.25;0.80;;;;;;;;;;6195767;28;20125;-82
2022/01/03 13:19:37;;;;;;;1.98;0.50;;;;;;;;;;6195277;28;20061;-83
2022/01/03 13:22:39;;;;;;;3.17;0.50;;;;;;;;;;6190592;28;20931;-81
2022/01/03 13:25:41;;;;;;;3.28;0.70;;;;;;;;;;6221093;28;20042;-81
2022/01/03 13:28:51;;;;;;;2.60;0.80;;;;;;;;;;6229084;28;20046;-84
2022/01/03 13:31:54;;;;;;;6.25;1.10;;;;;;;;;;6197760;28;20130;-85
2022/01/03 13:34:58;;;;;;;2.28;0.50;;;;;;;;;;6227930;28;20161;-84
2022/01/03 13:38:15;;;;;;;2.95;0.70;;;;;;;;;;6194192;28;20052;-83
2022/01/03 13:41:20;;;;;;;4.30;0.80;;;;;;;;;;6184976;28;20121;-82
2022/01/03 13:44:37;;;;;;;4.03;0.75;;;;;;;;;;6194808;28;20051;-84
2022/01/03 13:50:59;;;;;;;5.18;0.85;;;;;;;;;;6232600;28;20048;-85
2022/01/03 13:54:01;;;;;;;5.35;0.70;;;;;;;;;;6221744;28;20667;-85
2022/01/03 13:57:06;;;;;;;5.93;1.15;;;;;;;;;;6230169;28;20125;-84
2022/01/03 14:00:09;;;;;;;5.70;1.00;;;;;;;;;;6193778;28;20038;-83
2022/01/03 14:03:15;;;;;;;7.38;0.95;;;;;;;;;;6201286;28;20092;-83
2022/01/03 14:06:24;;;;;;;5.22;0.93;;;;;;;;;;6219079;28;20046;-84
2022/01/03 14:09:26;;;;;;;14.50;3.97;;;;;;;;;;6212379;28;20077;-85
2022/01/03 14:12:54;;;;;;;3.50;0.80;;;;;;;;;;6200433;28;20045;-83
2022/01/03 14:16:11;;;;;;;1.15;0.40;;;;;;;;;;6208877;28;20102;-85
2022/01/03 14:19:13;;;;;;;1.38;0.35;;;;;;;;;;6226078;28;20053;-85
2022/01/03 14:22:19;;;;;;;4.22;1.02;;;;;;;;;;6220811;28;20059;-86
2022/01/03 14:25:26;;;;;;;1.75;0.47;;;;;;;;;;6185006;28;20141;-85
2022/01/03 14:28:28;;;;;;;5.28;0.80;;;;;;;;;;6185326;28;20165;-84
2022/01/03 14:31:50;;;;;;;3.13;0.70;;;;;;;;;;6178391;28;20075;-85
2022/01/03 14:34:53;;;;;;;3.88;0.70;;;;;;;;;;6208351;28;20073;-84
2022/01/03 14:38:09;;;;;;;2.75;1.30;;;;;;;;;;6218289;28;20417;-84
2022/01/03 14:41:29;;;;;;;0.93;0.65;;;;;;;;;;6177382;28;20110;-85
2022/01/03 14:44:34;;;;;;;2.50;0.80;;;;;;;;;;6230309;28;20043;-84
2022/01/03 14:47:36;;;;;;;7.07;0.90;;;;;;;;;;6213267;28;20077;-85
2022/01/03 14:50:38;;;;;;;2.15;0.52;;;;;;;;;;6254342;28;20128;-82
2022/01/03 14:53:40;;;;;;;3.28;0.60;;;;;;;;;;6210654;28;20073;-85
2022/01/03 14:56:42;;;;;;;3.22;0.63;;;;;;;;;;6182502;28;20100;-86
2022/01/03 14:59:44;;;;;;;51.23;14.23;;;;;;;;;;6211339;28;20129;-86
2022/01/03 15:02:47;;;;;;;60.03;20.13;;;;;;;;;;6200716;28;20138;-85
2022/01/03 15:05:50;;;;;;;22.63;10.88;;;;;;;;;;6194687;28;20423;-82
2022/01/03 15:08:53;;;;;;;15.70;7.57;;;;;;;;;;6195460;28;20047;-85
2022/01/03 15:11:56;;;;;;;;;;;;;;;;;;6192876;28;20133;-85
2022/01/03 15:14:57;;;;;;;8.63;3.22;;;;;;;;;;6221613;28;20516;-85
2022/01/03 15:18:00;;;;;;;8.55;1.95;;;;;;;;;;6184799;28;20074;-85
2022/01/03 15:21:01;;;;;;;6.43;1.47;;;;;;;;;;6201642;28;20608;-85
2022/01/03 15:24:03;;;;;;;7.40;2.00;;;;;;;;;;6179977;28;20141;-85
2022/01/03 15:27:05;;;;;;;8.73;1.55;;;;;;;;;;6208065;28;20392;-84
2022/01/03 15:30:08;;;;;;;8.20;1.17;;;;;;;;;;6192387;28;20200;-84
2022/01/03 15:33:10;;;;;;;4.97;1.00;;;;;;;;;;6170554;28;20050;-85
2022/01/03 15:36:12;;;;;;;5.97;1.00;;;;;;;;;;6199993;28;20054;-84
2022/01/03 15:39:14;;;;;;;6.68;1.20;;;;;;;;;;6161680;28;20412;-83
2022/01/03 15:42:15;;;;;;;7.57;1.50;;;;;;;;;;6214999;28;20054;-85
2022/01/03 15:45:17;;;;;;;7.03;1.35;;;;;;;;;;6239825;28;20135;-84
2022/01/03 15:48:19;;;;;;;5.47;1.30;;;;;;;;;;6215019;28;20058;-85
2022/01/03 15:51:21;;;;;;;7.03;1.70;;;;;;;;;;6217304;28;20050;-86
2022/01/03 15:54:22;;;;;;;5.53;1.42;;;;;;;;;;6194699;28;20122;-83
2022/01/03 15:57:24;;;;;;;5.88;2.10;;;;;;;;;;6193063;28;20125;-86
2022/01/03 16:00:27;;;;;;;7.03;2.35;;;;;;;;;;6189517;28;20129;-84
2022/01/03 16:03:29;;;;;;;;;;;;;;;;;;6184934;28;20133;-85
2022/01/03 16:06:30;;;;;;;4.78;2.60;;;;;;;;;;6193147;28;20460;-85
2022/01/03 16:09:32;;;;;;;6.45;3.15;;;;;;;;;;6206358;28;20172;-85
2022/01/03 16:12:35;;;;;;;6.00;2.25;;;;;;;;;;6215408;28;20311;-83
2022/01/03 16:15:36;;;;;;;7.72;2.30;;;;;;;;;;6188416;28;20089;-84
2022/01/03 16:18:38;;;;;;;7.90;2.75;;;;;;;;;;6222424;28;20046;-87
2022/01/03 16:21:43;;;;;;;10.07;2.85;;;;;;;;;;6190284;28;20764;-87
2022/01/03 16:24:45;;;;;;;4.82;2.42;;;;;;;;;;6206220;28;20042;-86
2022/01/03 16:27:47;;;;;;;6.63;2.75;;;;;;;;;;6180518;28;20129;-85
2022/01/03 16:30:49;;;;;;;7.18;1.55;;;;;;;;;;6217867;28;20054;-86
2022/01/03 16:33:50;;;;;;;5.50;1.20;;;;;;;;;;6193696;28;20049;-86
2022/01/03 16:36:52;;;;;;;5.30;1.42;;;;;;;;;;6218029;28;20184;-86
2022/01/03 16:39:53;;;;;;;8.43;1.13;;;;;;;;;;6171306;28;20709;-85
2022/01/03 16:42:55;;;;;;;4.75;1.60;;;;;;;;;;6185474;28;20097;-85
2022/01/03 16:45:57;;;;;;;4.63;1.70;;;;;;;;;;6179573;28;20042;-86
2022/01/03 16:48:59;;;;;;;6.72;1.50;;;;;;;;;;6199525;28;20043;-85
2022/01/03 16:52:00;;;;;;;5.75;1.30;;;;;;;;;;6189868;28;20464;-86
2022/01/03 16:55:03;;;;;;;4.40;1.67;;;;;;;;;;6225521;28;20070;-85
2022/01/03 16:58:05;;;;;;;5.78;1.50;;;;;;;;;;6225540;28;20054;-85
2022/01/03 17:01:07;;;;;;;10.70;2.50;;;;;;;;;;6192794;28;20821;-84
2022/01/03 17:04:09;;;;;;;49.55;15.00;;;;;;;;;;6181862;28;20157;-85
2022/01/03 17:07:10;;;;;;;8.88;3.08;;;;;;;;;;6201556;28;20110;-82
2022/01/03 17:10:12;;;;;;;7.40;3.42;;;;;;;;;;6190831;28;20135;-82
2022/01/03 17:13:15;;;;;;;15.48;3.60;;;;;;;;;;6215856;28;20439;-83
2022/01/03 17:16:17;;;;;;;11.10;4.93;;;;;;;;;;6201904;28;20060;-84
2022/01/03 17:19:19;;;;;;;13.00;6.82;;;;;;;;;;6211204;28;20133;-84
2022/01/03 17:22:20;;;;;;;13.70;5.93;;;;;;;;;;6241588;28;20515;-84
2022/01/03 17:25:22;;;;;;;9.60;4.47;;;;;;;;;;6202037;28;20698;-83
2022/01/03 17:28:24;;;;;;;10.20;3.95;;;;;;;;;;6203740;28;20069;-86
2022/01/03 17:31:30;;;;;;;6.38;2.35;;;;;;;;;;6236878;28;20048;-86
2022/01/03 17:34:33;;;;;;;13.45;5.57;;;;;;;;;;6208833;28;20423;-85
2022/01/03 17:37:35;;;;;;;13.65;5.47;;;;;;;;;;6194769;28;20081;-86
2022/01/03 17:40:37;;;;;;;11.35;3.60;;;;;;;;;;6224143;28;20038;-84
2022/01/03 17:43:39;;;;;;;9.75;1.85;;;;;;;;;;6251066;28;20103;-85
2022/01/03 17:46:41;;;;;;;4.30;1.60;;;;;;;;;;6178014;28;20070;-83
2022/01/03 17:49:42;;;;;;;1.60;0.95;;;;;;;;;;6215744;28;20056;-85
2022/01/03 17:52:44;;;;;;;6.82;1.30;;;;;;;;;;6211608;28;20117;-85
2022/01/03 17:55:46;;;;;;;3.35;1.15;;;;;;;;;;6191597;28;20511;-89
2022/01/03 17:58:48;;;;;;;5.90;1.65;;;;;;;;;;6200337;28;20038;-87
2022/01/03 18:01:49;;;;;;;4.25;1.38;;;;;;;;;;6196903;28;20073;-85
2022/01/03 18:04:51;;;;;;;7.32;1.30;;;;;;;;;;6220011;28;20046;-84
2022/01/03 18:07:54;;;;;;;4.05;1.65;;;;;;;;;;6251834;28;20069;-85
2022/01/03 18:10:56;;;;;;;5.05;1.40;;;;;;;;;;6207593;28;20052;-85
2022/01/03 18:13:57;;;;;;;5.07;2.13;;;;;;;;;;6213517;28;20100;-86
2022/01/03 18:17:00;;;;;;;6.35;1.70;;;;;;;;;;6200420;28;20058;-85
2022/01/03 18:20:04;;;;;;;3.88;1.48;;;;;;;;;;6253210;28;20045;-85
2022/01/03 18:23:05;;;;;;;6.55;1.73;;;;;;;;;;6222779;28;20133;-83
2022/01/03 18:26:07;;;;;;;6.57;1.60;;;;;;;;;;6228507;28;20069;-87
2022/01/03 18:29:10;;;;;;;4.65;1.98;;;;;;;;;;6210430;28;20149;-83
2022/01/03 18:32:12;;;;;;;4.32;1.90;;;;;;;;;;6209772;28;20061;-85
2022/01/03 18:35:14;;;;;;;6.80;2.22;;;;;;;;;;6254272;28;20431;-84
2022/01/03 18:38:15;;;;;;;5.82;1.75;;;;;;;;;;6239087;28;20502;-84
2022/01/03 18:41:17;;;;;;;4.63;1.35;;;;;;;;;;6214065;28;20108;-84
2022/01/03 18:44:19;;;;;;;4.15;1.25;;;;;;;;;;6245731;28;20069;-82
2022/01/03 18:47:26;;;;;;;5.07;1.63;;;;;;;;;;6215524;28;20042;-84